createdAt,value
2023-02-06T00:02:18.173Z,31.50
2023-02-06T00:05:19.924Z,25.60
2023-02-06T00:08:21.919Z,26.43
2023-02-06T00:11:24.245Z,21.67
2023-02-06T00:14:25.933Z,25.10
2023-02-06T00:17:27.701Z,23.87
2023-02-06T00:20:29.390Z,23.30
2023-02-06T00:23:33.565Z,20.80
2023-02-06T00:26:35.249Z,20.90
2023-02-06T00:29:36.970Z,23.53
2023-02-06T00:32:38.793Z,21.83
2023-02-06T00:35:40.649Z,20.83
2023-02-06T00:38:42.386Z,22.00
2023-02-06T00:41:44.365Z,20.37
2023-02-06T00:44:46.048Z,22.20
2023-02-06T00:48:35.512Z,19.73
2023-02-06T00:51:38.807Z,19.07
2023-02-06T00:54:40.464Z,22.17
2023-02-06T00:57:42.238Z,18.23
2023-02-06T01:00:44.446Z,19.40
2023-02-06T01:03:46.147Z,18.07
2023-02-06T01:06:47.818Z,16.23
2023-02-06T01:09:49.462Z,16.40
2023-02-06T01:12:51.301Z,16.80
2023-02-06T01:15:52.992Z,17.50
2023-02-06T01:18:54.773Z,19.00
2023-02-06T01:21:56.448Z,19.77
2023-02-06T01:24:58.079Z,19.70
2023-02-06T01:27:59.823Z,21.53
2023-02-06T01:31:01.601Z,19.57
2023-02-06T01:34:03.441Z,20.20
2023-02-06T01:37:05.116Z,19.77
2023-02-06T01:40:11.519Z,19.80
2023-02-06T01:43:18.096Z,20.40
2023-02-06T01:46:19.799Z,20.97
2023-02-06T01:49:27.429Z,18.37
2023-02-06T01:52:31.845Z,15.57
2023-02-06T01:55:36.854Z,16.90
2023-02-06T01:58:44.657Z,21.73
2023-02-06T02:01:46.535Z,22.53
2023-02-06T02:04:48.852Z,20.47
2023-02-06T02:08:00.979Z,23.30
2023-02-06T02:11:05.339Z,20.83
2023-02-06T02:14:10.082Z,22.07
2023-02-06T02:17:25.520Z,20.53
2023-02-06T02:20:58.611Z,22.13
2023-02-06T02:24:32.481Z,18.20
2023-02-06T02:27:52.283Z,23.70
2023-02-06T02:31:19.068Z,22.20
2023-02-06T02:35:06.192Z,21.97
2023-02-06T02:38:29.004Z,21.73
2023-02-06T02:41:47.165Z,25.37
2023-02-06T02:45:19.092Z,31.63
2023-02-06T02:48:26.354Z,28.63
2023-02-06T02:51:28.121Z,26.10
2023-02-06T02:54:29.973Z,27.70
2023-02-06T02:57:59.817Z,28.50
2023-02-06T03:01:07.424Z,28.20
2023-02-06T03:04:16.256Z,29.83
2023-02-06T03:07:48.851Z,27.83
2023-02-06T03:11:22.704Z,28.43
2023-02-06T03:14:40.711Z,28.23
2023-02-06T03:18:11.680Z,25.70
2023-02-06T03:21:23.514Z,27.17
2023-02-06T03:25:03.651Z,19.80
2023-02-06T03:28:13.608Z,21.83
2023-02-06T03:31:20.574Z,20.00
2023-02-06T03:34:41.672Z,19.77
2023-02-06T03:37:43.690Z,19.23
2023-02-06T03:40:48.402Z,21.23
2023-02-06T03:43:51.027Z,21.73
2023-02-06T03:46:55.040Z,21.13
2023-02-06T03:50:00.390Z,19.67
2023-02-06T03:53:04.093Z,21.87
2023-02-06T03:56:15.910Z,19.90
2023-02-06T03:59:17.728Z,23.87
2023-02-06T04:02:21.480Z,22.03
2023-02-06T04:05:23.581Z,26.10
2023-02-06T04:08:25.322Z,22.67
2023-02-06T04:11:26.989Z,26.97
2023-02-06T04:14:28.644Z,27.43
2023-02-06T04:17:46.481Z,24.53
2023-02-06T04:20:53.119Z,27.80
2023-02-06T04:23:54.868Z,28.47
2023-02-06T04:26:56.542Z,24.13
2023-02-06T04:29:59.477Z,23.17
2023-02-06T04:33:03.951Z,22.30
2023-02-06T04:36:05.948Z,21.73
2023-02-06T04:39:08.027Z,21.27
2023-02-06T04:42:09.690Z,20.50
2023-02-06T04:45:11.444Z,22.53
2023-02-06T04:48:13.110Z,23.93
2023-02-06T04:51:14.881Z,20.63
2023-02-06T04:54:17.336Z,22.37
2023-02-06T04:57:19.090Z,21.47
2023-02-06T05:00:20.868Z,22.47
2023-02-06T05:03:23.670Z,19.40
2023-02-06T05:06:25.383Z,20.40
2023-02-06T05:09:27.213Z,17.13
2023-02-06T05:12:29.116Z,18.83
2023-02-06T05:15:30.787Z,18.30
2023-02-06T05:18:32.558Z,19.63
2023-02-06T05:21:34.253Z,18.63
2023-02-06T05:24:35.914Z,20.67
2023-02-06T05:27:37.576Z,22.80
2023-02-06T05:30:39.217Z,20.57
2023-02-06T05:33:40.858Z,19.07
2023-02-06T05:36:42.556Z,18.70
2023-02-06T05:39:46.217Z,20.30
2023-02-06T05:42:48.031Z,18.43
2023-02-06T05:45:49.732Z,18.17
2023-02-06T05:48:51.568Z,18.30
2023-02-06T05:51:53.316Z,18.30
2023-02-06T05:54:54.969Z,16.77
2023-02-06T05:57:56.720Z,19.00
2023-02-06T06:00:58.493Z,17.63
2023-02-06T06:04:02.224Z,15.00
2023-02-06T06:07:03.981Z,15.60
2023-02-06T06:10:06.794Z,15.90
2023-02-06T06:13:08.907Z,18.83
2023-02-06T06:16:10.787Z,13.80
2023-02-06T06:19:12.483Z,15.73
2023-02-06T06:22:14.119Z,13.27
2023-02-06T06:25:15.986Z,16.33
2023-02-06T06:28:17.738Z,13.37
2023-02-06T06:31:19.670Z,17.53
2023-02-06T06:34:21.781Z,12.17
2023-02-06T06:37:23.435Z,13.37
2023-02-06T06:40:25.112Z,15.00
2023-02-06T06:43:26.865Z,13.67
2023-02-06T06:46:28.832Z,15.83
2023-02-06T06:49:30.472Z,15.90
2023-02-06T06:52:32.183Z,14.77
2023-02-06T06:55:34.336Z,17.17
2023-02-06T06:58:36.316Z,16.17
2023-02-06T07:01:38.006Z,14.77
2023-02-06T07:04:39.920Z,15.20
2023-02-06T07:07:41.949Z,16.90
2023-02-06T07:10:43.613Z,16.13
2023-02-06T07:13:46.108Z,17.07
2023-02-06T07:16:47.808Z,18.10
2023-02-06T07:19:51.486Z,18.27
2023-02-06T07:22:53.570Z,17.97
2023-02-06T07:25:56.531Z,17.13
2023-02-06T07:29:00.265Z,19.97
2023-02-06T07:32:02.130Z,19.37
2023-02-06T07:35:05.126Z,15.97
2023-02-06T07:38:06.867Z,17.90
2023-02-06T07:41:08.560Z,16.43
2023-02-06T07:44:11.321Z,16.97
2023-02-06T07:47:14.517Z,12.97
2023-02-06T07:50:16.370Z,19.07
2023-02-06T07:53:18.133Z,17.17
2023-02-06T07:56:23.192Z,16.60
2023-02-06T07:59:25.088Z,13.80
2023-02-06T08:02:26.823Z,13.10
2023-02-06T08:05:28.570Z,10.13
2023-02-06T08:08:30.322Z,15.90
2023-02-06T08:11:32.628Z,9.60
2023-02-06T08:14:34.375Z,10.00
2023-02-06T08:17:36.216Z,17.70
2023-02-06T08:20:37.915Z,9.50
2023-02-06T08:23:40.203Z,11.93
2023-02-06T08:26:43.720Z,9.17
2023-02-06T08:29:45.541Z,11.60
2023-02-06T08:32:47.204Z,11.17
2023-02-06T08:35:52.331Z,10.10
2023-02-06T08:38:54.033Z,18.40
2023-02-06T08:41:55.874Z,17.47
2023-02-06T08:44:57.707Z,16.80
2023-02-06T08:47:59.498Z,11.97
2023-02-06T08:51:06.275Z,16.93
2023-02-06T08:54:11.849Z,16.23
2023-02-06T08:57:13.646Z,17.07
2023-02-06T09:00:39.065Z,12.53
2023-02-06T09:03:41.823Z,12.40
2023-02-06T09:06:54.849Z,12.00
2023-02-06T09:09:56.500Z,11.03
2023-02-06T09:12:58.140Z,13.93
2023-02-06T09:15:59.989Z,12.60
2023-02-06T09:19:02.473Z,15.03
2023-02-06T09:22:05.874Z,12.03
2023-02-06T09:25:30.502Z,12.27
2023-02-06T09:28:32.724Z,9.17
2023-02-06T09:31:40.828Z,13.43
2023-02-06T09:34:42.473Z,10.60
2023-02-06T09:37:44.254Z,9.97
2023-02-06T09:40:54.753Z,9.47
2023-02-06T09:44:13.584Z,10.70
2023-02-06T09:47:48.170Z,11.20
2023-02-06T09:51:08.568Z,10.60
2023-02-06T09:54:22.070Z,12.40
2023-02-06T09:58:11.225Z,10.50
2023-02-06T10:01:15.912Z,9.87
2023-02-06T10:05:14.688Z,9.27
2023-02-06T10:08:50.160Z,10.73
2023-02-06T10:11:57.165Z,11.10
2023-02-06T10:15:25.390Z,14.53
2023-02-06T10:18:37.098Z,11.63
2023-02-06T10:21:42.664Z,9.40
2023-02-06T10:24:53.901Z,14.10
2023-02-06T10:27:59.446Z,11.50
2023-02-06T10:31:01.261Z,13.17
2023-02-06T10:34:28.117Z,10.43
2023-02-06T10:38:07.459Z,13.83
2023-02-06T10:41:33.286Z,11.50
2023-02-06T10:45:01.413Z,12.80
2023-02-06T10:48:29.283Z,17.57
2023-02-06T10:51:44.401Z,13.77
2023-02-06T10:54:52.080Z,15.70
2023-02-06T10:58:06.716Z,11.17
2023-02-06T11:01:25.143Z,9.60
2023-02-06T11:04:35.874Z,15.23
2023-02-06T11:07:52.288Z,12.37
2023-02-06T11:10:55.301Z,14.00
2023-02-06T11:14:04.413Z,11.50
2023-02-06T11:17:06.132Z,12.80
2023-02-06T11:20:28.059Z,15.83
2023-02-06T11:23:31.645Z,12.67
2023-02-06T11:26:33.419Z,14.83
2023-02-06T11:29:39.818Z,17.17
2023-02-06T11:32:52.753Z,11.10
2023-02-06T11:36:05.601Z,11.63
2023-02-06T11:39:23.056Z,11.77
2023-02-06T11:42:25.029Z,9.93
2023-02-06T11:45:32.802Z,11.67
2023-02-06T11:48:37.975Z,14.80
2023-02-06T11:51:49.524Z,9.13
2023-02-06T11:54:54.453Z,11.27
2023-02-06T11:58:02.343Z,11.23
2023-02-06T12:01:23.792Z,11.63
2023-02-06T12:04:31.880Z,10.43
2023-02-06T12:08:03.593Z,9.83
2023-02-06T12:11:12.519Z,7.17
2023-02-06T12:14:42.282Z,13.47
2023-02-06T12:17:51.330Z,9.50
2023-02-06T12:21:05.091Z,9.73
2023-02-06T12:24:25.757Z,11.77
2023-02-06T12:27:39.357Z,8.77
2023-02-06T12:31:00.863Z,11.07
2023-02-06T12:34:19.719Z,9.27
2023-02-06T12:37:39.706Z,13.90
2023-02-06T12:40:47.387Z,6.77
2023-02-06T12:43:58.112Z,8.67
2023-02-06T12:47:11.393Z,10.43
2023-02-06T12:50:25.022Z,7.77
2023-02-06T12:53:42.313Z,9.57
2023-02-06T12:56:48.729Z,12.20
2023-02-06T12:59:58.323Z,8.00
2023-02-06T13:03:29.905Z,10.83
2023-02-06T13:06:53.352Z,11.63
2023-02-06T13:10:05.903Z,10.80
2023-02-06T13:13:23.260Z,10.73
2023-02-06T13:16:55.686Z,13.47
2023-02-06T13:20:02.732Z,13.13
2023-02-06T13:23:13.472Z,11.67
2023-02-06T13:26:15.115Z,13.73
2023-02-06T13:29:27.174Z,8.57
2023-02-06T13:32:43.377Z,12.80
2023-02-06T13:35:56.645Z,9.70
2023-02-06T13:39:23.203Z,11.70
2023-02-06T13:42:34.067Z,10.60
2023-02-06T13:46:14.842Z,11.23
2023-02-06T13:49:48.976Z,9.77
2023-02-06T13:53:14.005Z,10.00
2023-02-06T13:56:49.318Z,9.43
2023-02-06T14:00:21.420Z,12.20
2023-02-06T14:03:28.534Z,8.93
2023-02-06T14:06:47.743Z,12.43
2023-02-06T14:10:11.166Z,10.03
2023-02-06T14:13:48.173Z,11.97
2023-02-06T14:16:55.824Z,13.47
2023-02-06T14:20:36.460Z,10.57
2023-02-06T14:28:38.157Z,8.73
2023-02-06T14:31:58.000Z,10.00
2023-02-06T14:35:21.878Z,8.90
2023-02-06T14:39:22.558Z,9.27
2023-02-06T14:42:38.165Z,7.60
2023-02-06T14:45:43.982Z,7.17
2023-02-06T14:48:55.388Z,7.90
2023-02-06T14:51:57.547Z,8.33
2023-02-06T14:54:59.284Z,8.13
2023-02-06T14:58:01.842Z,8.13
2023-02-06T15:01:18.747Z,7.73
2023-02-06T15:04:27.154Z,9.23
2023-02-06T15:07:30.538Z,7.90
2023-02-06T15:10:37.425Z,6.03
2023-02-06T15:13:39.274Z,10.37
2023-02-06T15:16:49.088Z,10.77
2023-02-06T15:19:53.741Z,10.67
2023-02-06T15:23:11.670Z,7.53
2023-02-06T15:26:48.214Z,6.63
2023-02-06T15:29:50.939Z,7.50
2023-02-06T15:32:55.843Z,9.33
2023-02-06T15:35:59.600Z,6.10
2023-02-06T15:39:03.272Z,6.13
2023-02-06T15:42:05.084Z,14.07
2023-02-06T15:45:15.258Z,6.10
2023-02-06T15:48:23.601Z,6.93
2023-02-06T15:51:29.470Z,6.70
2023-02-06T15:54:34.515Z,7.23
2023-02-06T15:57:41.692Z,10.73
2023-02-06T16:00:43.437Z,6.47
2023-02-06T16:03:48.647Z,5.60
2023-02-06T16:07:06.718Z,7.20
2023-02-06T16:10:08.605Z,6.00
2023-02-06T16:13:15.932Z,7.03
2023-02-06T16:16:21.767Z,5.90
2023-02-06T16:20:02.145Z,5.00
2023-02-06T16:23:19.442Z,6.27
2023-02-06T16:26:24.679Z,7.47
2023-02-06T16:30:04.557Z,6.23
2023-02-06T16:33:20.913Z,5.53
2023-02-06T16:36:24.076Z,4.40
2023-02-06T16:39:25.772Z,5.23
2023-02-06T16:42:35.242Z,4.27
2023-02-06T16:45:36.998Z,6.23
2023-02-06T16:48:38.631Z,4.30
2023-02-06T16:51:42.554Z,5.63
2023-02-06T16:54:45.704Z,5.23
2023-02-06T16:57:49.318Z,4.70
2023-02-06T17:00:51.384Z,6.13
2023-02-06T17:03:53.634Z,6.20
2023-02-06T17:06:55.530Z,6.57
2023-02-06T17:09:59.272Z,7.77
2023-02-06T17:13:00.931Z,7.73
2023-02-06T17:16:03.009Z,5.67
2023-02-06T17:19:04.770Z,4.60
2023-02-06T17:22:08.474Z,6.20
2023-02-06T17:25:10.174Z,4.33
2023-02-06T17:28:16.137Z,4.97
2023-02-06T17:31:27.036Z,6.23
2023-02-06T17:34:30.176Z,5.90
2023-02-06T17:37:31.854Z,5.07
2023-02-06T17:40:36.268Z,5.20
2023-02-06T17:43:38.271Z,5.93
2023-02-06T17:46:40.287Z,4.13
2023-02-06T17:49:42.079Z,6.17
2023-02-06T17:52:43.771Z,5.33
2023-02-06T17:55:45.658Z,4.83
2023-02-06T17:58:47.387Z,4.67
2023-02-06T18:01:49.177Z,6.23
2023-02-06T18:04:53.246Z,4.83
2023-02-06T18:07:55.075Z,4.53
2023-02-06T18:10:57.124Z,7.03
2023-02-06T18:13:59.008Z,5.30
2023-02-06T18:17:00.995Z,7.47
2023-02-06T18:20:03.088Z,5.40
2023-02-06T18:23:04.743Z,6.10
2023-02-06T18:26:37.573Z,6.27
2023-02-06T18:29:49.252Z,4.87
2023-02-06T18:32:51.605Z,5.13
2023-02-06T18:36:03.560Z,6.73
2023-02-06T18:39:08.224Z,6.67
2023-02-06T18:42:29.923Z,4.83
2023-02-06T18:45:34.470Z,5.27
2023-02-06T18:48:36.290Z,5.47
2023-02-06T18:51:38.024Z,4.70
2023-02-06T18:54:40.028Z,5.60
2023-02-06T18:57:41.987Z,5.17
2023-02-06T19:00:43.688Z,5.20
2023-02-06T19:03:45.460Z,6.97
2023-02-06T19:06:48.514Z,5.57
2023-02-06T19:09:50.221Z,5.20
2023-02-06T19:12:51.907Z,4.90
2023-02-06T19:16:06.232Z,4.63
2023-02-06T19:19:07.955Z,5.60
2023-02-06T19:22:09.666Z,4.23
2023-02-06T19:25:40.184Z,6.30
2023-02-06T19:28:43.000Z,4.73
2023-02-06T19:31:44.691Z,4.17
2023-02-06T19:34:46.504Z,4.67
2023-02-06T19:37:48.304Z,4.00
2023-02-06T19:40:50.186Z,5.13
2023-02-06T19:43:53.709Z,3.97
2023-02-06T19:46:55.952Z,3.60
2023-02-06T19:49:57.627Z,3.20
2023-02-06T19:52:59.271Z,3.50
2023-02-06T19:56:05.032Z,4.53
2023-02-06T19:59:28.470Z,3.90
2023-02-06T20:02:30.414Z,3.33
2023-02-06T20:05:33.952Z,3.20
2023-02-06T20:08:35.732Z,3.07
2023-02-06T20:11:37.492Z,3.07
2023-02-06T20:14:39.327Z,2.90
2023-02-06T20:17:41.506Z,2.97
2023-02-06T20:20:43.415Z,3.20
2023-02-06T20:23:45.077Z,2.47
2023-02-06T20:26:48.102Z,3.20
2023-02-06T20:29:49.820Z,3.37
2023-02-06T20:32:51.521Z,3.30
2023-02-06T20:35:53.213Z,3.07
2023-02-06T20:38:59.785Z,3.80
2023-02-06T20:42:01.775Z,3.43
2023-02-06T20:45:03.732Z,3.80
2023-02-06T20:48:05.597Z,3.87
2023-02-06T20:51:07.361Z,3.03
2023-02-06T20:54:11.399Z,3.10
2023-02-06T20:57:15.321Z,3.70
2023-02-06T21:00:17.320Z,3.97
2023-02-06T21:03:19.188Z,4.90
2023-02-06T21:06:21.226Z,4.10
2023-02-06T21:09:23.056Z,3.67
2023-02-06T21:12:24.749Z,4.27
2023-02-06T21:15:26.484Z,3.70
2023-02-06T21:18:30.722Z,4.90
2023-02-06T21:21:33.217Z,3.80
2023-02-06T21:24:34.977Z,4.63
2023-02-06T21:27:42.621Z,4.07
2023-02-06T21:30:44.350Z,4.67
2023-02-06T21:33:47.904Z,4.20
2023-02-06T21:36:50.233Z,4.40
2023-02-06T21:39:51.956Z,6.10
2023-02-06T21:42:53.612Z,4.40
2023-02-06T21:45:57.845Z,3.97
2023-02-06T21:48:59.945Z,4.60
2023-02-06T21:52:01.660Z,4.40
2023-02-06T21:55:06.722Z,4.27
2023-02-06T21:58:10.002Z,4.03
2023-02-06T22:01:20.811Z,4.30
2023-02-06T22:04:22.478Z,4.63
2023-02-06T22:07:24.218Z,4.43
2023-02-06T22:10:26.096Z,4.77
2023-02-06T22:13:27.877Z,5.17
2023-02-06T22:16:30.282Z,4.90
2023-02-06T22:19:32.000Z,6.10
2023-02-06T22:22:33.707Z,5.47
2023-02-06T22:25:35.499Z,7.03
2023-02-06T22:28:37.328Z,6.13
2023-02-06T22:31:43.323Z,5.70
2023-02-06T22:34:46.160Z,5.37
2023-02-06T22:37:47.845Z,7.33
2023-02-06T22:40:59.812Z,6.97
2023-02-06T22:44:01.550Z,6.47
2023-02-06T22:47:03.384Z,7.87
2023-02-06T22:50:06.538Z,6.60
2023-02-06T22:53:29.613Z,7.40
2023-02-06T22:56:36.938Z,6.83
2023-02-06T22:59:38.870Z,7.73
2023-02-06T23:02:41.016Z,9.53
2023-02-06T23:05:42.627Z,8.37
2023-02-06T23:08:44.930Z,8.07
2023-02-06T23:11:47.231Z,7.53
2023-02-06T23:14:48.860Z,8.43
2023-02-06T23:17:50.494Z,7.80
2023-02-06T23:21:00.978Z,10.40
2023-02-06T23:24:04.656Z,8.77
2023-02-06T23:27:06.323Z,8.93
2023-02-06T23:30:08.479Z,7.87
2023-02-06T23:33:10.475Z,8.07
2023-02-06T23:36:16.928Z,8.50
2023-02-06T23:39:19.899Z,8.87
2023-02-06T23:42:21.570Z,7.80
2023-02-06T23:45:23.208Z,9.30
2023-02-06T23:48:24.835Z,8.80
2023-02-06T23:51:27.099Z,8.53
2023-02-06T23:54:28.784Z,11.17
2023-02-06T23:57:30.501Z,11.10
